sensor_id;sensor_type;location;lat;lon;timestamp;P1;durP1;ratioP1;P2;durP2;ratioP2
21777;SDS011;11050;52.222;20.916;2022-12-10T00:01:21;85.57;;;41.73;;
21777;SDS011;11050;52.222;20.916;2022-12-10T00:03:49;93.40;;;43.87;;
21777;SDS011;11050;52.222;20.916;2022-12-10T00:06:19;91.77;;;42.70;;
21777;SDS011;11050;52.222;20.916;2022-12-10T00:08:51;83.87;;;41.03;;
21777;SDS011;11050;52.222;20.916;2022-12-10T00:11:17;89.80;;;40.87;;
21777;SDS011;11050;52.222;20.916;2022-12-10T00:13:46;90.03;;;40.90;;
21777;SDS011;11050;52.222;20.916;2022-12-10T00:16:13;83.10;;;39.37;;
21777;SDS011;11050;52.222;20.916;2022-12-10T00:18:42;91.80;;;42.27;;
21777;SDS011;11050;52.222;20.916;2022-12-10T00:21:09;90.50;;;42.47;;
21777;SDS011;11050;52.222;20.916;2022-12-10T00:23:38;92.03;;;41.53;;
21777;SDS011;11050;52.222;20.916;2022-12-10T00:26:09;91.97;;;44.47;;
21777;SDS011;11050;52.222;20.916;2022-12-10T00:28:50;94.20;;;43.67;;
21777;SDS011;11050;52.222;20.916;2022-12-10T00:31:18;88.90;;;42.20;;
21777;SDS011;11050;52.222;20.916;2022-12-10T00:33:50;89.90;;;41.33;;
21777;SDS011;11050;52.222;20.916;2022-12-10T00:36:20;92.60;;;42.90;;
21777;SDS011;11050;52.222;20.916;2022-12-10T00:38:49;86.70;;;42.57;;
21777;SDS011;11050;52.222;20.916;2022-12-10T00:41:16;90.53;;;41.80;;
21777;SDS011;11050;52.222;20.916;2022-12-10T00:43:42;91.47;;;43.90;;
21777;SDS011;11050;52.222;20.916;2022-12-10T00:46:09;94.57;;;42.57;;
21777;SDS011;11050;52.222;20.916;2022-12-10T00:48:37;88.50;;;41.07;;
21777;SDS011;11050;52.222;20.916;2022-12-10T00:51:04;90.30;;;41.17;;
21777;SDS011;11050;52.222;20.916;2022-12-10T00:53:35;88.20;;;40.97;;
21777;SDS011;11050;52.222;20.916;2022-12-10T00:56:03;87.27;;;39.97;;
21777;SDS011;11050;52.222;20.916;2022-12-10T00:58:31;87.60;;;40.50;;
21777;SDS011;11050;52.222;20.916;2022-12-10T01:01:21;88.60;;;40.70;;
21777;SDS011;11050;52.222;20.916;2022-12-10T01:03:47;89.70;;;40.90;;
21777;SDS011;11050;52.222;20.916;2022-12-10T01:06:17;84.70;;;40.83;;
21777;SDS011;11050;52.222;20.916;2022-12-10T01:08:45;88.43;;;41.83;;
21777;SDS011;11050;52.222;20.916;2022-12-10T01:11:13;85.07;;;40.53;;
21777;SDS011;11050;52.222;20.916;2022-12-10T01:13:41;88.20;;;41.67;;
21777;SDS011;11050;52.222;20.916;2022-12-10T01:16:09;89.67;;;40.97;;
21777;SDS011;11050;52.222;20.916;2022-12-10T01:18:37;94.03;;;42.60;;
21777;SDS011;11050;52.222;20.916;2022-12-10T01:21:04;92.20;;;42.77;;
21777;SDS011;11050;52.222;20.916;2022-12-10T01:23:38;91.50;;;40.30;;
21777;SDS011;11050;52.222;20.916;2022-12-10T01:26:07;89.23;;;40.97;;
21777;SDS011;11050;52.222;20.916;2022-12-10T01:28:36;100.73;;;42.00;;
21777;SDS011;11050;52.222;20.916;2022-12-10T01:31:08;93.90;;;41.77;;
21777;SDS011;11050;52.222;20.916;2022-12-10T01:33:37;87.13;;;39.07;;
21777;SDS011;11050;52.222;20.916;2022-12-10T01:36:15;94.40;;;41.93;;
21777;SDS011;11050;52.222;20.916;2022-12-10T01:38:46;89.13;;;39.27;;
21777;SDS011;11050;52.222;20.916;2022-12-10T01:41:13;93.67;;;41.77;;
21777;SDS011;11050;52.222;20.916;2022-12-10T01:46:22;85.00;;;38.63;;
21777;SDS011;11050;52.222;20.916;2022-12-10T01:48:58;91.40;;;41.73;;
21777;SDS011;11050;52.222;20.916;2022-12-10T01:51:30;86.23;;;40.40;;
21777;SDS011;11050;52.222;20.916;2022-12-10T01:53:58;92.93;;;41.57;;
21777;SDS011;11050;52.222;20.916;2022-12-10T01:56:26;88.97;;;39.93;;
21777;SDS011;11050;52.222;20.916;2022-12-10T01:58:54;84.90;;;39.90;;
21777;SDS011;11050;52.222;20.916;2022-12-10T02:01:34;83.57;;;38.37;;
21777;SDS011;11050;52.222;20.916;2022-12-10T02:10:06;81.33;;;37.20;;
21777;SDS011;11050;52.222;20.916;2022-12-10T02:12:49;85.03;;;37.73;;
21777;SDS011;11050;52.222;20.916;2022-12-10T02:15:34;89.17;;;37.13;;
21777;SDS011;11050;52.222;20.916;2022-12-10T02:18:11;87.03;;;37.50;;
21777;SDS011;11050;52.222;20.916;2022-12-10T02:20:52;86.20;;;38.33;;
21777;SDS011;11050;52.222;20.916;2022-12-10T02:23:29;91.27;;;37.77;;
21777;SDS011;11050;52.222;20.916;2022-12-10T02:34:28;83.57;;;36.37;;
21777;SDS011;11050;52.222;20.916;2022-12-10T02:37:01;81.50;;;35.70;;
21777;SDS011;11050;52.222;20.916;2022-12-10T02:39:38;80.83;;;35.60;;
21777;SDS011;11050;52.222;20.916;2022-12-10T02:42:10;81.30;;;35.27;;
21777;SDS011;11050;52.222;20.916;2022-12-10T02:44:42;76.37;;;35.43;;
21777;SDS011;11050;52.222;20.916;2022-12-10T02:47:11;82.60;;;36.33;;
21777;SDS011;11050;52.222;20.916;2022-12-10T02:49:38;80.53;;;35.00;;
21777;SDS011;11050;52.222;20.916;2022-12-10T02:52:07;77.33;;;34.37;;
21777;SDS011;11050;52.222;20.916;2022-12-10T02:54:45;83.27;;;35.57;;
21777;SDS011;11050;52.222;20.916;2022-12-10T02:57:23;79.87;;;35.00;;
21777;SDS011;11050;52.222;20.916;2022-12-10T03:02:43;75.00;;;34.00;;
21777;SDS011;11050;52.222;20.916;2022-12-10T03:05:41;73.70;;;32.93;;
21777;SDS011;11050;52.222;20.916;2022-12-10T03:11:17;70.47;;;30.77;;
21777;SDS011;11050;52.222;20.916;2022-12-10T03:14:21;69.80;;;31.07;;
21777;SDS011;11050;52.222;20.916;2022-12-10T03:16:56;70.73;;;32.60;;
21777;SDS011;11050;52.222;20.916;2022-12-10T03:19:32;67.43;;;30.37;;
21777;SDS011;11050;52.222;20.916;2022-12-10T03:22:07;71.63;;;30.33;;
21777;SDS011;11050;52.222;20.916;2022-12-10T03:24:38;72.63;;;31.90;;
21777;SDS011;11050;52.222;20.916;2022-12-10T03:27:07;70.50;;;32.00;;
21777;SDS011;11050;52.222;20.916;2022-12-10T03:29:50;73.70;;;31.93;;
21777;SDS011;11050;52.222;20.916;2022-12-10T03:32:21;67.33;;;30.20;;
21777;SDS011;11050;52.222;20.916;2022-12-10T03:34:51;67.30;;;32.27;;
21777;SDS011;11050;52.222;20.916;2022-12-10T03:37:21;64.90;;;29.13;;
21777;SDS011;11050;52.222;20.916;2022-12-10T03:39:49;65.87;;;29.97;;
21777;SDS011;11050;52.222;20.916;2022-12-10T03:42:16;61.77;;;28.57;;
21777;SDS011;11050;52.222;20.916;2022-12-10T03:44:41;64.63;;;28.27;;
21777;SDS011;11050;52.222;20.916;2022-12-10T03:47:09;60.30;;;27.47;;
21777;SDS011;11050;52.222;20.916;2022-12-10T03:49:39;66.87;;;28.67;;
21777;SDS011;11050;52.222;20.916;2022-12-10T03:52:06;66.93;;;28.23;;
21777;SDS011;11050;52.222;20.916;2022-12-10T03:54:32;62.90;;;28.53;;
21777;SDS011;11050;52.222;20.916;2022-12-10T03:56:58;69.70;;;30.23;;
21777;SDS011;11050;52.222;20.916;2022-12-10T03:59:24;64.37;;;29.00;;
21777;SDS011;11050;52.222;20.916;2022-12-10T04:01:49;70.10;;;30.97;;
21777;SDS011;11050;52.222;20.916;2022-12-10T04:04:15;63.90;;;30.83;;
21777;SDS011;11050;52.222;20.916;2022-12-10T04:06:41;69.47;;;30.70;;
21777;SDS011;11050;52.222;20.916;2022-12-10T04:09:09;74.63;;;30.50;;
21777;SDS011;11050;52.222;20.916;2022-12-10T04:11:36;70.63;;;29.80;;
21777;SDS011;11050;52.222;20.916;2022-12-10T04:14:02;70.80;;;30.60;;
21777;SDS011;11050;52.222;20.916;2022-12-10T04:16:47;71.30;;;31.87;;
21777;SDS011;11050;52.222;20.916;2022-12-10T04:19:14;73.67;;;32.13;;
21777;SDS011;11050;52.222;20.916;2022-12-10T04:21:43;64.03;;;29.57;;
21777;SDS011;11050;52.222;20.916;2022-12-10T04:24:30;63.97;;;29.07;;
21777;SDS011;11050;52.222;20.916;2022-12-10T04:27:30;65.83;;;29.63;;
21777;SDS011;11050;52.222;20.916;2022-12-10T04:29:59;67.73;;;29.07;;
21777;SDS011;11050;52.222;20.916;2022-12-10T04:32:26;70.23;;;30.57;;
21777;SDS011;11050;52.222;20.916;2022-12-10T04:34:54;75.70;;;30.77;;
21777;SDS011;11050;52.222;20.916;2022-12-10T04:37:20;83.03;;;35.23;;
21777;SDS011;11050;52.222;20.916;2022-12-10T04:39:51;74.93;;;32.27;;
21777;SDS011;11050;52.222;20.916;2022-12-10T04:42:18;73.07;;;31.97;;
21777;SDS011;11050;52.222;20.916;2022-12-10T04:44:46;71.00;;;30.13;;
21777;SDS011;11050;52.222;20.916;2022-12-10T04:47:12;65.80;;;29.13;;
21777;SDS011;11050;52.222;20.916;2022-12-10T04:49:38;69.03;;;28.07;;
21777;SDS011;11050;52.222;20.916;2022-12-10T04:52:05;61.33;;;27.57;;
21777;SDS011;11050;52.222;20.916;2022-12-10T04:54:33;66.83;;;28.63;;
21777;SDS011;11050;52.222;20.916;2022-12-10T04:56:59;70.67;;;29.93;;
21777;SDS011;11050;52.222;20.916;2022-12-10T04:59:24;79.70;;;31.67;;
21777;SDS011;11050;52.222;20.916;2022-12-10T05:01:50;81.10;;;32.70;;
21777;SDS011;11050;52.222;20.916;2022-12-10T05:04:17;74.10;;;31.23;;
21777;SDS011;11050;52.222;20.916;2022-12-10T05:06:44;74.40;;;29.67;;
21777;SDS011;11050;52.222;20.916;2022-12-10T05:09:13;83.20;;;32.63;;
21777;SDS011;11050;52.222;20.916;2022-12-10T05:11:39;75.17;;;28.63;;
21777;SDS011;11050;52.222;20.916;2022-12-10T05:14:06;78.17;;;30.00;;
21777;SDS011;11050;52.222;20.916;2022-12-10T05:16:35;78.57;;;30.53;;
21777;SDS011;11050;52.222;20.916;2022-12-10T05:19:00;68.70;;;29.23;;
21777;SDS011;11050;52.222;20.916;2022-12-10T05:21:27;82.70;;;31.83;;
21777;SDS011;11050;52.222;20.916;2022-12-10T05:24:14;75.47;;;30.33;;
21777;SDS011;11050;52.222;20.916;2022-12-10T05:26:40;70.57;;;28.77;;
21777;SDS011;11050;52.222;20.916;2022-12-10T05:29:07;67.63;;;28.03;;
21777;SDS011;11050;52.222;20.916;2022-12-10T05:31:33;72.23;;;28.27;;
21777;SDS011;11050;52.222;20.916;2022-12-10T05:33:59;70.23;;;28.00;;
21777;SDS011;11050;52.222;20.916;2022-12-10T05:36:27;69.73;;;28.13;;
21777;SDS011;11050;52.222;20.916;2022-12-10T05:38:56;61.80;;;25.30;;
21777;SDS011;11050;52.222;20.916;2022-12-10T05:41:24;62.77;;;25.20;;
21777;SDS011;11050;52.222;20.916;2022-12-10T05:43:54;54.63;;;24.13;;
21777;SDS011;11050;52.222;20.916;2022-12-10T05:46:23;60.40;;;23.67;;
21777;SDS011;11050;52.222;20.916;2022-12-10T05:48:53;56.93;;;23.87;;
21777;SDS011;11050;52.222;20.916;2022-12-10T05:51:20;54.93;;;24.37;;
21777;SDS011;11050;52.222;20.916;2022-12-10T05:53:53;59.23;;;25.50;;
21777;SDS011;11050;52.222;20.916;2022-12-10T05:56:22;58.63;;;26.50;;
21777;SDS011;11050;52.222;20.916;2022-12-10T05:58:50;67.33;;;25.60;;
21777;SDS011;11050;52.222;20.916;2022-12-10T06:01:22;79.50;;;30.03;;
21777;SDS011;11050;52.222;20.916;2022-12-10T06:03:52;76.90;;;28.20;;
21777;SDS011;11050;52.222;20.916;2022-12-10T06:06:25;68.53;;;28.20;;
21777;SDS011;11050;52.222;20.916;2022-12-10T06:08:55;75.67;;;28.97;;
21777;SDS011;11050;52.222;20.916;2022-12-10T06:11:22;76.17;;;29.27;;
21777;SDS011;11050;52.222;20.916;2022-12-10T06:13:49;71.47;;;28.43;;
21777;SDS011;11050;52.222;20.916;2022-12-10T06:16:15;72.57;;;28.93;;
21777;SDS011;11050;52.222;20.916;2022-12-10T06:18:41;68.63;;;27.37;;
21777;SDS011;11050;52.222;20.916;2022-12-10T06:21:09;70.27;;;27.57;;
21777;SDS011;11050;52.222;20.916;2022-12-10T06:23:39;71.87;;;27.67;;
21777;SDS011;11050;52.222;20.916;2022-12-10T06:26:07;71.13;;;26.63;;
21777;SDS011;11050;52.222;20.916;2022-12-10T06:28:37;69.37;;;27.73;;
21777;SDS011;11050;52.222;20.916;2022-12-10T06:31:03;70.90;;;26.97;;
21777;SDS011;11050;52.222;20.916;2022-12-10T06:33:30;61.13;;;26.10;;
21777;SDS011;11050;52.222;20.916;2022-12-10T06:35:56;68.37;;;26.83;;
21777;SDS011;11050;52.222;20.916;2022-12-10T06:38:22;59.67;;;23.67;;
21777;SDS011;11050;52.222;20.916;2022-12-10T06:40:48;64.80;;;24.43;;
21777;SDS011;11050;52.222;20.916;2022-12-10T06:43:14;65.00;;;24.47;;
21777;SDS011;11050;52.222;20.916;2022-12-10T06:45:41;60.57;;;23.77;;
21777;SDS011;11050;52.222;20.916;2022-12-10T06:48:07;61.30;;;23.27;;
21777;SDS011;11050;52.222;20.916;2022-12-10T06:50:33;61.27;;;24.10;;
21777;SDS011;11050;52.222;20.916;2022-12-10T06:52:59;60.37;;;24.50;;
21777;SDS011;11050;52.222;20.916;2022-12-10T06:55:25;61.70;;;22.97;;
21777;SDS011;11050;52.222;20.916;2022-12-10T06:57:52;60.43;;;23.83;;
21777;SDS011;11050;52.222;20.916;2022-12-10T07:00:19;54.90;;;21.87;;
21777;SDS011;11050;52.222;20.916;2022-12-10T07:02:46;55.07;;;22.13;;
21777;SDS011;11050;52.222;20.916;2022-12-10T07:05:13;60.20;;;22.30;;
21777;SDS011;11050;52.222;20.916;2022-12-10T07:07:39;63.67;;;23.13;;
21777;SDS011;11050;52.222;20.916;2022-12-10T07:10:05;60.83;;;23.80;;
21777;SDS011;11050;52.222;20.916;2022-12-10T07:12:32;56.50;;;22.47;;
21777;SDS011;11050;52.222;20.916;2022-12-10T07:14:57;59.73;;;22.30;;
21777;SDS011;11050;52.222;20.916;2022-12-10T07:17:23;59.90;;;22.77;;
21777;SDS011;11050;52.222;20.916;2022-12-10T07:19:49;62.37;;;22.87;;
21777;SDS011;11050;52.222;20.916;2022-12-10T07:22:15;56.20;;;23.47;;
21777;SDS011;11050;52.222;20.916;2022-12-10T07:24:41;58.13;;;22.53;;
21777;SDS011;11050;52.222;20.916;2022-12-10T07:27:07;60.97;;;24.13;;
21777;SDS011;11050;52.222;20.916;2022-12-10T07:29:34;61.70;;;23.60;;
21777;SDS011;11050;52.222;20.916;2022-12-10T07:32:00;64.40;;;24.13;;
21777;SDS011;11050;52.222;20.916;2022-12-10T07:34:26;64.83;;;23.37;;
21777;SDS011;11050;52.222;20.916;2022-12-10T07:36:52;68.43;;;23.73;;
21777;SDS011;11050;52.222;20.916;2022-12-10T07:39:19;60.43;;;24.30;;
21777;SDS011;11050;52.222;20.916;2022-12-10T07:41:52;60.27;;;22.67;;
21777;SDS011;11050;52.222;20.916;2022-12-10T07:44:19;59.17;;;22.80;;
21777;SDS011;11050;52.222;20.916;2022-12-10T07:46:51;55.80;;;22.60;;
21777;SDS011;11050;52.222;20.916;2022-12-10T07:49:19;55.10;;;22.00;;
21777;SDS011;11050;52.222;20.916;2022-12-10T07:51:45;57.30;;;23.23;;
21777;SDS011;11050;52.222;20.916;2022-12-10T07:54:13;58.97;;;22.97;;
21777;SDS011;11050;52.222;20.916;2022-12-10T07:56:40;65.73;;;24.27;;
21777;SDS011;11050;52.222;20.916;2022-12-10T07:59:06;62.17;;;24.13;;
21777;SDS011;11050;52.222;20.916;2022-12-10T08:01:32;62.23;;;22.33;;
21777;SDS011;11050;52.222;20.916;2022-12-10T08:03:58;58.57;;;21.70;;
21777;SDS011;11050;52.222;20.916;2022-12-10T08:06:25;57.17;;;21.93;;
21777;SDS011;11050;52.222;20.916;2022-12-10T08:08:54;56.53;;;23.10;;
21777;SDS011;11050;52.222;20.916;2022-12-10T08:11:22;63.43;;;23.73;;
21777;SDS011;11050;52.222;20.916;2022-12-10T08:13:48;56.23;;;22.07;;
21777;SDS011;11050;52.222;20.916;2022-12-10T08:16:16;59.50;;;22.70;;
21777;SDS011;11050;52.222;20.916;2022-12-10T08:18:45;57.83;;;22.70;;
21777;SDS011;11050;52.222;20.916;2022-12-10T08:21:14;62.87;;;22.70;;
21777;SDS011;11050;52.222;20.916;2022-12-10T08:23:42;57.73;;;22.57;;
21777;SDS011;11050;52.222;20.916;2022-12-10T08:26:11;56.73;;;20.93;;
21777;SDS011;11050;52.222;20.916;2022-12-10T08:28:41;52.20;;;20.07;;
21777;SDS011;11050;52.222;20.916;2022-12-10T08:31:08;50.70;;;19.57;;
21777;SDS011;11050;52.222;20.916;2022-12-10T08:33:36;49.47;;;19.47;;
21777;SDS011;11050;52.222;20.916;2022-12-10T08:36:04;39.57;;;16.80;;
21777;SDS011;11050;52.222;20.916;2022-12-10T08:38:31;48.93;;;19.67;;
21777;SDS011;11050;52.222;20.916;2022-12-10T08:40:58;47.63;;;19.33;;
21777;SDS011;11050;52.222;20.916;2022-12-10T08:43:24;47.17;;;19.13;;
21777;SDS011;11050;52.222;20.916;2022-12-10T08:45:50;45.30;;;18.40;;
21777;SDS011;11050;52.222;20.916;2022-12-10T08:48:16;45.53;;;17.17;;
21777;SDS011;11050;52.222;20.916;2022-12-10T08:50:42;43.30;;;18.00;;
21777;SDS011;11050;52.222;20.916;2022-12-10T08:53:08;51.13;;;19.63;;
21777;SDS011;11050;52.222;20.916;2022-12-10T08:55:37;42.77;;;16.60;;
21777;SDS011;11050;52.222;20.916;2022-12-10T08:58:04;44.10;;;17.30;;
21777;SDS011;11050;52.222;20.916;2022-12-10T09:00:30;44.97;;;16.97;;
21777;SDS011;11050;52.222;20.916;2022-12-10T09:02:56;44.40;;;17.97;;
21777;SDS011;11050;52.222;20.916;2022-12-10T09:05:22;45.17;;;17.10;;
21777;SDS011;11050;52.222;20.916;2022-12-10T09:07:48;41.33;;;17.37;;
21777;SDS011;11050;52.222;20.916;2022-12-10T09:10:14;39.63;;;17.20;;
21777;SDS011;11050;52.222;20.916;2022-12-10T09:12:41;44.07;;;16.80;;
21777;SDS011;11050;52.222;20.916;2022-12-10T09:15:08;44.63;;;17.70;;
21777;SDS011;11050;52.222;20.916;2022-12-10T09:17:35;45.00;;;17.53;;
21777;SDS011;11050;52.222;20.916;2022-12-10T09:20:03;46.97;;;17.60;;
21777;SDS011;11050;52.222;20.916;2022-12-10T09:22:31;40.67;;;16.60;;
21777;SDS011;11050;52.222;20.916;2022-12-10T09:24:57;42.83;;;17.53;;
21777;SDS011;11050;52.222;20.916;2022-12-10T09:27:23;43.60;;;17.70;;
21777;SDS011;11050;52.222;20.916;2022-12-10T09:29:48;43.33;;;16.90;;
21777;SDS011;11050;52.222;20.916;2022-12-10T09:32:14;47.20;;;18.10;;
21777;SDS011;11050;52.222;20.916;2022-12-10T09:34:40;42.13;;;17.50;;
21777;SDS011;11050;52.222;20.916;2022-12-10T09:37:06;43.07;;;17.20;;
21777;SDS011;11050;52.222;20.916;2022-12-10T09:39:31;42.53;;;16.67;;
21777;SDS011;11050;52.222;20.916;2022-12-10T09:53:49;48.63;;;18.73;;
21777;SDS011;11050;52.222;20.916;2022-12-10T09:56:31;49.67;;;17.63;;
21777;SDS011;11050;52.222;20.916;2022-12-10T09:59:17;45.40;;;17.53;;
21777;SDS011;11050;52.222;20.916;2022-12-10T10:04:49;45.13;;;17.83;;
21777;SDS011;11050;52.222;20.916;2022-12-10T10:07:26;45.40;;;17.70;;
21777;SDS011;11050;52.222;20.916;2022-12-10T10:10:06;45.23;;;19.23;;
21777;SDS011;11050;52.222;20.916;2022-12-10T10:12:43;48.53;;;18.50;;
21777;SDS011;11050;52.222;20.916;2022-12-10T10:15:12;46.07;;;18.30;;
21777;SDS011;11050;52.222;20.916;2022-12-10T10:17:43;40.60;;;18.13;;
21777;SDS011;11050;52.222;20.916;2022-12-10T10:20:12;43.80;;;18.30;;
21777;SDS011;11050;52.222;20.916;2022-12-10T10:22:39;53.93;;;18.97;;
21777;SDS011;11050;52.222;20.916;2022-12-10T10:25:08;43.60;;;18.67;;
21777;SDS011;11050;52.222;20.916;2022-12-10T10:27:41;42.83;;;18.13;;
21777;SDS011;11050;52.222;20.916;2022-12-10T10:30:13;45.23;;;18.43;;
21777;SDS011;11050;52.222;20.916;2022-12-10T10:35:24;44.23;;;18.50;;
21777;SDS011;11050;52.222;20.916;2022-12-10T10:37:56;41.67;;;19.40;;
21777;SDS011;11050;52.222;20.916;2022-12-10T10:40:33;40.03;;;17.10;;
21777;SDS011;11050;52.222;20.916;2022-12-10T10:43:12;44.23;;;18.40;;
21777;SDS011;11050;52.222;20.916;2022-12-10T10:46:04;41.87;;;18.57;;
21777;SDS011;11050;52.222;20.916;2022-12-10T10:48:38;43.23;;;18.87;;
21777;SDS011;11050;52.222;20.916;2022-12-10T10:51:05;43.80;;;18.53;;
21777;SDS011;11050;52.222;20.916;2022-12-10T10:56:18;48.13;;;19.53;;
21777;SDS011;11050;52.222;20.916;2022-12-10T11:01:51;41.23;;;17.87;;
21777;SDS011;11050;52.222;20.916;2022-12-10T11:04:31;48.07;;;19.17;;
21777;SDS011;11050;52.222;20.916;2022-12-10T11:07:14;47.87;;;19.07;;
21777;SDS011;11050;52.222;20.916;2022-12-10T11:10:00;45.47;;;19.00;;
21777;SDS011;11050;52.222;20.916;2022-12-10T11:12:40;46.63;;;19.30;;
21777;SDS011;11050;52.222;20.916;2022-12-10T11:15:40;47.53;;;19.73;;
21777;SDS011;11050;52.222;20.916;2022-12-10T11:18:01;50.83;;;19.57;;
21777;SDS011;11050;52.222;20.916;2022-12-10T11:20:45;47.83;;;18.83;;
21777;SDS011;11050;52.222;20.916;2022-12-10T11:23:27;45.20;;;19.47;;
21777;SDS011;11050;52.222;20.916;2022-12-10T11:52:38;50.70;;;19.67;;
21777;SDS011;11050;52.222;20.916;2022-12-10T11:55:39;51.13;;;18.40;;
21777;SDS011;11050;52.222;20.916;2022-12-10T11:58:29;56.17;;;19.33;;
21777;SDS011;11050;52.222;20.916;2022-12-10T12:01:02;53.53;;;20.00;;
21777;SDS011;11050;52.222;20.916;2022-12-10T12:12:14;54.03;;;19.43;;
21777;SDS011;11050;52.222;20.916;2022-12-10T12:15:25;48.03;;;19.13;;
21777;SDS011;11050;52.222;20.916;2022-12-10T12:20:57;51.50;;;17.93;;
21777;SDS011;11050;52.222;20.916;2022-12-10T12:23:29;54.37;;;18.83;;
21777;SDS011;11050;52.222;20.916;2022-12-10T12:26:27;54.17;;;20.00;;
21777;SDS011;11050;52.222;20.916;2022-12-10T12:32:02;50.10;;;19.20;;
21777;SDS011;11050;52.222;20.916;2022-12-10T12:37:32;44.87;;;17.30;;
21777;SDS011;11050;52.222;20.916;2022-12-10T12:40:29;50.63;;;19.27;;
21777;SDS011;11050;52.222;20.916;2022-12-10T12:43:03;56.40;;;20.50;;
21777;SDS011;11050;52.222;20.916;2022-12-10T12:45:44;50.60;;;18.60;;
21777;SDS011;11050;52.222;20.916;2022-12-10T12:48:24;55.23;;;19.97;;
21777;SDS011;11050;52.222;20.916;2022-12-10T12:51:03;55.30;;;18.83;;
21777;SDS011;11050;52.222;20.916;2022-12-10T12:53:37;46.77;;;17.80;;
21777;SDS011;11050;52.222;20.916;2022-12-10T13:01:37;50.23;;;19.80;;
21777;SDS011;11050;52.222;20.916;2022-12-10T13:04:46;40.67;;;17.83;;
21777;SDS011;11050;52.222;20.916;2022-12-10T13:12:32;44.27;;;17.20;;
21777;SDS011;11050;52.222;20.916;2022-12-10T13:18:00;41.23;;;16.10;;
21777;SDS011;11050;52.222;20.916;2022-12-10T13:24:05;44.03;;;17.97;;
21777;SDS011;11050;52.222;20.916;2022-12-10T13:26:40;40.10;;;16.43;;
21777;SDS011;11050;52.222;20.916;2022-12-10T13:29:28;39.93;;;17.00;;
21777;SDS011;11050;52.222;20.916;2022-12-10T13:32:13;44.67;;;18.67;;
21777;SDS011;11050;52.222;20.916;2022-12-10T13:34:46;47.20;;;20.43;;
21777;SDS011;11050;52.222;20.916;2022-12-10T13:37:32;52.97;;;20.77;;
21777;SDS011;11050;52.222;20.916;2022-12-10T13:42:34;44.70;;;18.97;;
21777;SDS011;11050;52.222;20.916;2022-12-10T13:45:24;46.63;;;20.13;;
21777;SDS011;11050;52.222;20.916;2022-12-10T13:47:55;48.80;;;19.47;;
21777;SDS011;11050;52.222;20.916;2022-12-10T13:51:13;47.10;;;18.97;;
21777;SDS011;11050;52.222;20.916;2022-12-10T14:08:33;43.77;;;19.13;;
21777;SDS011;11050;52.222;20.916;2022-12-10T14:11:04;49.13;;;21.67;;
21777;SDS011;11050;52.222;20.916;2022-12-10T14:13:43;48.50;;;20.10;;
21777;SDS011;11050;52.222;20.916;2022-12-10T14:16:18;51.63;;;22.53;;
21777;SDS011;11050;52.222;20.916;2022-12-10T14:19:01;50.10;;;22.33;;
21777;SDS011;11050;52.222;20.916;2022-12-10T14:21:36;45.27;;;20.77;;
21777;SDS011;11050;52.222;20.916;2022-12-10T14:24:11;44.60;;;19.13;;
21777;SDS011;11050;52.222;20.916;2022-12-10T14:27:12;45.23;;;19.43;;
21777;SDS011;11050;52.222;20.916;2022-12-10T14:29:48;41.27;;;18.10;;
21777;SDS011;11050;52.222;20.916;2022-12-10T14:32:18;38.00;;;17.77;;
21777;SDS011;11050;52.222;20.916;2022-12-10T14:34:57;38.53;;;18.00;;
21777;SDS011;11050;52.222;20.916;2022-12-10T14:37:25;39.70;;;17.30;;
21777;SDS011;11050;52.222;20.916;2022-12-10T14:39:55;40.63;;;20.23;;
21777;SDS011;11050;52.222;20.916;2022-12-10T14:42:22;39.90;;;19.23;;
21777;SDS011;11050;52.222;20.916;2022-12-10T14:44:56;45.00;;;20.37;;
21777;SDS011;11050;52.222;20.916;2022-12-10T14:47:47;41.13;;;17.83;;
21777;SDS011;11050;52.222;20.916;2022-12-10T14:50:15;45.90;;;20.60;;
21777;SDS011;11050;52.222;20.916;2022-12-10T14:52:43;47.63;;;21.70;;
21777;SDS011;11050;52.222;20.916;2022-12-10T14:55:16;42.63;;;19.93;;
21777;SDS011;11050;52.222;20.916;2022-12-10T14:57:57;41.00;;;19.77;;
21777;SDS011;11050;52.222;20.916;2022-12-10T15:00:28;48.10;;;21.67;;
21777;SDS011;11050;52.222;20.916;2022-12-10T15:03:06;45.87;;;21.50;;
21777;SDS011;11050;52.222;20.916;2022-12-10T15:05:35;41.57;;;20.43;;
21777;SDS011;11050;52.222;20.916;2022-12-10T15:08:03;43.33;;;20.33;;
21777;SDS011;11050;52.222;20.916;2022-12-10T15:10:36;44.00;;;21.20;;
21777;SDS011;11050;52.222;20.916;2022-12-10T15:13:07;45.90;;;21.07;;
21777;SDS011;11050;52.222;20.916;2022-12-10T15:15:48;47.40;;;22.07;;
21777;SDS011;11050;52.222;20.916;2022-12-10T15:18:18;39.10;;;19.73;;
21777;SDS011;11050;52.222;20.916;2022-12-10T15:20:54;43.80;;;21.23;;
21777;SDS011;11050;52.222;20.916;2022-12-10T15:23:35;45.07;;;20.10;;
21777;SDS011;11050;52.222;20.916;2022-12-10T15:26:15;46.67;;;21.50;;
21777;SDS011;11050;52.222;20.916;2022-12-10T15:28:52;43.50;;;20.93;;
21777;SDS011;11050;52.222;20.916;2022-12-10T15:31:48;43.30;;;20.67;;
21777;SDS011;11050;52.222;20.916;2022-12-10T15:34:19;44.17;;;20.80;;
21777;SDS011;11050;52.222;20.916;2022-12-10T15:39:23;47.27;;;21.40;;
21777;SDS011;11050;52.222;20.916;2022-12-10T15:41:57;41.93;;;19.93;;
21777;SDS011;11050;52.222;20.916;2022-12-10T15:47:01;39.67;;;20.67;;
21777;SDS011;11050;52.222;20.916;2022-12-10T15:49:34;44.70;;;21.33;;
21777;SDS011;11050;52.222;20.916;2022-12-10T15:51:59;45.67;;;22.70;;
21777;SDS011;11050;52.222;20.916;2022-12-10T15:54:28;43.33;;;20.27;;
21777;SDS011;11050;52.222;20.916;2022-12-10T15:57:15;41.30;;;19.67;;
21777;SDS011;11050;52.222;20.916;2022-12-10T15:59:44;42.50;;;20.30;;
21777;SDS011;11050;52.222;20.916;2022-12-10T16:05:27;41.90;;;21.27;;
21777;SDS011;11050;52.222;20.916;2022-12-10T16:07:56;41.40;;;20.63;;
21777;SDS011;11050;52.222;20.916;2022-12-10T16:10:27;40.47;;;20.83;;
21777;SDS011;11050;52.222;20.916;2022-12-10T16:13:06;43.37;;;20.77;;
21777;SDS011;11050;52.222;20.916;2022-12-10T16:15:48;42.03;;;20.87;;
21777;SDS011;11050;52.222;20.916;2022-12-10T16:18:19;39.63;;;20.20;;
21777;SDS011;11050;52.222;20.916;2022-12-10T16:20:45;40.43;;;20.47;;
21777;SDS011;11050;52.222;20.916;2022-12-10T16:23:11;41.87;;;20.80;;
21777;SDS011;11050;52.222;20.916;2022-12-10T16:25:39;43.93;;;21.87;;
21777;SDS011;11050;52.222;20.916;2022-12-10T16:28:13;42.23;;;20.20;;
21777;SDS011;11050;52.222;20.916;2022-12-10T16:30:50;40.30;;;20.37;;
21777;SDS011;11050;52.222;20.916;2022-12-10T16:33:19;43.10;;;22.37;;
21777;SDS011;11050;52.222;20.916;2022-12-10T16:35:49;40.77;;;20.20;;
21777;SDS011;11050;52.222;20.916;2022-12-10T16:38:17;44.43;;;21.37;;
21777;SDS011;11050;52.222;20.916;2022-12-10T16:40:44;41.27;;;20.87;;
21777;SDS011;11050;52.222;20.916;2022-12-10T16:43:33;42.60;;;21.90;;
21777;SDS011;11050;52.222;20.916;2022-12-10T16:45:58;38.07;;;19.80;;
21777;SDS011;11050;52.222;20.916;2022-12-10T16:48:24;39.97;;;19.73;;